Hudson, Maine
Current Conditions -  °F | °C
As of 3:53 AM on Monday 24 Nov 2014 (Local Time) from KBGR Reporting Station
Scattered Clouds Scattered Clouds  
Wind Chill: 39°   Ceiling: Unl
Heat Index: 43°   Visibility: 10mi
Dew Point: 40°   Wind: 7mph
Humidity: 89%   Direction: 160°SSE
Pressure: 30.07"   Gusts: NA
Location:  45°N, 68.88°W
Report Text: KBGR 240853Z 16006KT 10SM FEW050 SCT100 06/04 A3007 RMK AO2 SLP183 T00610044 58017
Loading
Personal Weather Stations






























Interactive Weather Map New forecast layout! Learn more

10-Day Weather Forecast

Advertisements
Track Severe Weather on mobile